sensor_id;sensor_type;location;lat;lon;timestamp;P1;durP1;ratioP1;P2;durP2;ratioP2
52248;SDS011;38541;48.130;8.378;2023-03-14T00:00:08;0.40;;;0.40;;
52248;SDS011;38541;48.130;8.378;2023-03-14T00:02:39;0.30;;;0.30;;
52248;SDS011;38541;48.130;8.378;2023-03-14T00:05:06;0.40;;;0.40;;
52248;SDS011;38541;48.130;8.378;2023-03-14T00:07:35;0.38;;;0.38;;
52248;SDS011;38541;48.130;8.378;2023-03-14T00:10:10;0.30;;;0.30;;
52248;SDS011;38541;48.130;8.378;2023-03-14T00:12:39;0.38;;;0.38;;
52248;SDS011;38541;48.130;8.378;2023-03-14T00:15:07;0.40;;;0.40;;
52248;SDS011;38541;48.130;8.378;2023-03-14T00:17:34;0.30;;;0.30;;
52248;SDS011;38541;48.130;8.378;2023-03-14T00:20:02;0.50;;;0.50;;
52248;SDS011;38541;48.130;8.378;2023-03-14T00:22:34;0.38;;;0.38;;
52248;SDS011;38541;48.130;8.378;2023-03-14T00:25:02;0.40;;;0.40;;
52248;SDS011;38541;48.130;8.378;2023-03-14T00:27:29;0.40;;;0.40;;
52248;SDS011;38541;48.130;8.378;2023-03-14T00:29:56;0.32;;;0.32;;
52248;SDS011;38541;48.130;8.378;2023-03-14T00:32:22;0.60;;;0.60;;
52248;SDS011;38541;48.130;8.378;2023-03-14T00:34:49;0.57;;;0.57;;
52248;SDS011;38541;48.130;8.378;2023-03-14T00:37:16;0.50;;;0.50;;
52248;SDS011;38541;48.130;8.378;2023-03-14T00:39:42;0.30;;;0.30;;
52248;SDS011;38541;48.130;8.378;2023-03-14T00:42:09;0.40;;;0.40;;
52248;SDS011;38541;48.130;8.378;2023-03-14T00:44:35;0.43;;;0.38;;
52248;SDS011;38541;48.130;8.378;2023-03-14T00:47:05;0.50;;;0.50;;
52248;SDS011;38541;48.130;8.378;2023-03-14T00:49:32;0.40;;;0.40;;
52248;SDS011;38541;48.130;8.378;2023-03-14T00:51:59;0.38;;;0.38;;
52248;SDS011;38541;48.130;8.378;2023-03-14T00:54:26;0.35;;;0.30;;
52248;SDS011;38541;48.130;8.378;2023-03-14T00:56:52;0.30;;;0.30;;
52248;SDS011;38541;48.130;8.378;2023-03-14T00:59:19;0.40;;;0.40;;
52248;SDS011;38541;48.130;8.378;2023-03-14T01:01:46;0.32;;;0.32;;
52248;SDS011;38541;48.130;8.378;2023-03-14T01:04:12;0.40;;;0.40;;
52248;SDS011;38541;48.130;8.378;2023-03-14T01:06:39;0.40;;;0.40;;
52248;SDS011;38541;48.130;8.378;2023-03-14T01:09:06;0.45;;;0.45;;
52248;SDS011;38541;48.130;8.378;2023-03-14T01:11:33;0.38;;;0.38;;
52248;SDS011;38541;48.130;8.378;2023-03-14T01:14:01;0.50;;;0.50;;
52248;SDS011;38541;48.130;8.378;2023-03-14T01:16:30;0.50;;;0.50;;
52248;SDS011;38541;48.130;8.378;2023-03-14T01:18:59;1.38;;;0.40;;
52248;SDS011;38541;48.130;8.378;2023-03-14T01:21:27;0.40;;;0.40;;
52248;SDS011;38541;48.130;8.378;2023-03-14T01:23:57;0.40;;;0.40;;
52248;SDS011;38541;48.130;8.378;2023-03-14T01:26:26;0.40;;;0.40;;
52248;SDS011;38541;48.130;8.378;2023-03-14T01:28:55;0.35;;;0.35;;
52248;SDS011;38541;48.130;8.378;2023-03-14T01:31:24;0.45;;;0.40;;
52248;SDS011;38541;48.130;8.378;2023-03-14T01:33:51;0.40;;;0.40;;
52248;SDS011;38541;48.130;8.378;2023-03-14T01:36:18;0.40;;;0.40;;
52248;SDS011;38541;48.130;8.378;2023-03-14T01:38:45;1.02;;;0.65;;
52248;SDS011;38541;48.130;8.378;2023-03-14T01:41:15;1.13;;;0.80;;
52248;SDS011;38541;48.130;8.378;2023-03-14T01:43:43;0.57;;;0.50;;
52248;SDS011;38541;48.130;8.378;2023-03-14T01:46:13;1.60;;;0.40;;
52248;SDS011;38541;48.130;8.378;2023-03-14T01:51:37;0.70;;;0.70;;
52248;SDS011;38541;48.130;8.378;2023-03-14T01:54:18;0.80;;;0.80;;
52248;SDS011;38541;48.130;8.378;2023-03-14T01:56:52;2.90;;;0.80;;
52248;SDS011;38541;48.130;8.378;2023-03-14T01:59:31;0.85;;;0.63;;
52248;SDS011;38541;48.130;8.378;2023-03-14T02:01:58;1.17;;;0.60;;
52248;SDS011;38541;48.130;8.378;2023-03-14T02:04:32;2.55;;;0.60;;
52248;SDS011;38541;48.130;8.378;2023-03-14T02:09:43;1.55;;;0.70;;
52248;SDS011;38541;48.130;8.378;2023-03-14T02:14:50;0.77;;;0.70;;
52248;SDS011;38541;48.130;8.378;2023-03-14T02:17:22;0.70;;;0.68;;
52248;SDS011;38541;48.130;8.378;2023-03-14T02:20:14;0.52;;;0.50;;
52248;SDS011;38541;48.130;8.378;2023-03-14T02:23:08;0.50;;;0.50;;
52248;SDS011;38541;48.130;8.378;2023-03-14T02:25:51;0.70;;;0.70;;
52248;SDS011;38541;48.130;8.378;2023-03-14T02:28:27;1.40;;;0.80;;
52248;SDS011;38541;48.130;8.378;2023-03-14T02:30:59;0.60;;;0.60;;
52248;SDS011;38541;48.130;8.378;2023-03-14T02:33:26;2.35;;;1.05;;
52248;SDS011;38541;48.130;8.378;2023-03-14T02:35:55;0.73;;;0.57;;
52248;SDS011;38541;48.130;8.378;2023-03-14T02:38:30;0.85;;;0.60;;
52248;SDS011;38541;48.130;8.378;2023-03-14T02:41:17;1.58;;;1.10;;
52248;SDS011;38541;48.130;8.378;2023-03-14T02:43:50;1.10;;;0.77;;
52248;SDS011;38541;48.130;8.378;2023-03-14T02:46:17;1.60;;;1.02;;
52248;SDS011;38541;48.130;8.378;2023-03-14T02:48:48;1.15;;;1.13;;
52248;SDS011;38541;48.130;8.378;2023-03-14T02:51:18;1.20;;;0.90;;
52248;SDS011;38541;48.130;8.378;2023-03-14T02:53:46;3.15;;;1.02;;
52248;SDS011;38541;48.130;8.378;2023-03-14T02:56:14;0.80;;;0.80;;
52248;SDS011;38541;48.130;8.378;2023-03-14T02:58:40;6.18;;;1.20;;
52248;SDS011;38541;48.130;8.378;2023-03-14T03:03:54;0.60;;;0.60;;
52248;SDS011;38541;48.130;8.378;2023-03-14T03:06:20;1.60;;;1.00;;
52248;SDS011;38541;48.130;8.378;2023-03-14T03:08:47;0.93;;;0.65;;
52248;SDS011;38541;48.130;8.378;2023-03-14T03:11:13;1.00;;;0.75;;
52248;SDS011;38541;48.130;8.378;2023-03-14T03:13:40;2.55;;;0.93;;
52248;SDS011;38541;48.130;8.378;2023-03-14T03:16:07;0.60;;;0.60;;
52248;SDS011;38541;48.130;8.378;2023-03-14T03:18:34;2.08;;;0.75;;
52248;SDS011;38541;48.130;8.378;2023-03-14T03:21:01;1.38;;;0.73;;
52248;SDS011;38541;48.130;8.378;2023-03-14T03:23:30;0.88;;;0.60;;
52248;SDS011;38541;48.130;8.378;2023-03-14T03:25:56;0.93;;;0.65;;
52248;SDS011;38541;48.130;8.378;2023-03-14T03:28:23;2.47;;;1.10;;
52248;SDS011;38541;48.130;8.378;2023-03-14T03:30:51;1.30;;;0.80;;
52248;SDS011;38541;48.130;8.378;2023-03-14T03:33:17;3.25;;;0.80;;
52248;SDS011;38541;48.130;8.378;2023-03-14T03:35:45;2.35;;;0.80;;
52248;SDS011;38541;48.130;8.378;2023-03-14T03:38:16;0.68;;;0.60;;
52248;SDS011;38541;48.130;8.378;2023-03-14T03:40:44;2.70;;;0.70;;
52248;SDS011;38541;48.130;8.378;2023-03-14T03:43:11;2.58;;;1.05;;
52248;SDS011;38541;48.130;8.378;2023-03-14T03:45:40;1.77;;;0.90;;
52248;SDS011;38541;48.130;8.378;2023-03-14T03:48:07;0.77;;;0.75;;
52248;SDS011;38541;48.130;8.378;2023-03-14T03:50:33;0.93;;;0.75;;
52248;SDS011;38541;48.130;8.378;2023-03-14T03:53:00;3.42;;;1.17;;
52248;SDS011;38541;48.130;8.378;2023-03-14T03:55:26;2.92;;;0.90;;
52248;SDS011;38541;48.130;8.378;2023-03-14T03:57:54;3.15;;;1.23;;
52248;SDS011;38541;48.130;8.378;2023-03-14T04:00:20;0.80;;;0.80;;
52248;SDS011;38541;48.130;8.378;2023-03-14T04:02:47;2.53;;;0.80;;
52248;SDS011;38541;48.130;8.378;2023-03-14T04:05:16;1.85;;;1.20;;
52248;SDS011;38541;48.130;8.378;2023-03-14T04:07:56;2.95;;;1.38;;
52248;SDS011;38541;48.130;8.378;2023-03-14T04:10:26;1.25;;;0.80;;
52248;SDS011;38541;48.130;8.378;2023-03-14T04:13:06;1.27;;;0.70;;
52248;SDS011;38541;48.130;8.378;2023-03-14T04:15:33;2.58;;;0.80;;
52248;SDS011;38541;48.130;8.378;2023-03-14T04:18:06;1.15;;;0.70;;
52248;SDS011;38541;48.130;8.378;2023-03-14T04:20:34;0.60;;;0.60;;
52248;SDS011;38541;48.130;8.378;2023-03-14T04:23:02;0.85;;;0.73;;
52248;SDS011;38541;48.130;8.378;2023-03-14T04:25:28;0.75;;;0.55;;
52248;SDS011;38541;48.130;8.378;2023-03-14T04:27:57;1.02;;;0.57;;
52248;SDS011;38541;48.130;8.378;2023-03-14T04:30:27;0.85;;;0.68;;
52248;SDS011;38541;48.130;8.378;2023-03-14T04:32:59;2.05;;;0.68;;
52248;SDS011;38541;48.130;8.378;2023-03-14T04:35:32;0.63;;;0.60;;
52248;SDS011;38541;48.130;8.378;2023-03-14T04:38:04;0.47;;;0.47;;
52248;SDS011;38541;48.130;8.378;2023-03-14T04:40:32;1.48;;;1.00;;
52248;SDS011;38541;48.130;8.378;2023-03-14T04:43:03;0.85;;;0.70;;
52248;SDS011;38541;48.130;8.378;2023-03-14T04:45:30;1.50;;;0.93;;
52248;SDS011;38541;48.130;8.378;2023-03-14T04:47:58;1.25;;;0.80;;
52248;SDS011;38541;48.130;8.378;2023-03-14T04:50:25;0.50;;;0.50;;
52248;SDS011;38541;48.130;8.378;2023-03-14T04:52:52;0.90;;;0.60;;
52248;SDS011;38541;48.130;8.378;2023-03-14T04:55:18;0.50;;;0.50;;
52248;SDS011;38541;48.130;8.378;2023-03-14T04:57:45;0.70;;;0.60;;
52248;SDS011;38541;48.130;8.378;2023-03-14T05:00:13;0.57;;;0.57;;
52248;SDS011;38541;48.130;8.378;2023-03-14T05:05:26;0.73;;;0.60;;
52248;SDS011;38541;48.130;8.378;2023-03-14T05:08:12;1.45;;;0.75;;
52248;SDS011;38541;48.130;8.378;2023-03-14T05:10:52;1.52;;;0.93;;
52248;SDS011;38541;48.130;8.378;2023-03-14T05:13:40;1.20;;;0.70;;
52248;SDS011;38541;48.130;8.378;2023-03-14T05:16:25;1.35;;;0.50;;
52248;SDS011;38541;48.130;8.378;2023-03-14T05:18:59;0.60;;;0.60;;
52248;SDS011;38541;48.130;8.378;2023-03-14T05:21:41;0.47;;;0.47;;
52248;SDS011;38541;48.130;8.378;2023-03-14T05:24:25;0.50;;;0.50;;
52248;SDS011;38541;48.130;8.378;2023-03-14T05:27:10;0.50;;;0.50;;
52248;SDS011;38541;48.130;8.378;2023-03-14T05:29:43;0.57;;;0.57;;
52248;SDS011;38541;48.130;8.378;2023-03-14T05:32:38;0.90;;;0.60;;
52248;SDS011;38541;48.130;8.378;2023-03-14T05:35:08;0.95;;;0.57;;
52248;SDS011;38541;48.130;8.378;2023-03-14T05:37:48;0.57;;;0.57;;
52248;SDS011;38541;48.130;8.378;2023-03-14T05:40:47;0.60;;;0.60;;
52248;SDS011;38541;48.130;8.378;2023-03-14T05:43:38;0.65;;;0.47;;
52248;SDS011;38541;48.130;8.378;2023-03-14T05:46:23;0.40;;;0.40;;
52248;SDS011;38541;48.130;8.378;2023-03-14T05:49:07;0.45;;;0.45;;
52248;SDS011;38541;48.130;8.378;2023-03-14T05:52:08;1.17;;;0.60;;
52248;SDS011;38541;48.130;8.378;2023-03-14T05:54:56;1.27;;;0.70;;
52248;SDS011;38541;48.130;8.378;2023-03-14T05:57:36;0.55;;;0.55;;
52248;SDS011;38541;48.130;8.378;2023-03-14T06:00:08;0.60;;;0.60;;
52248;SDS011;38541;48.130;8.378;2023-03-14T06:02:39;1.35;;;0.75;;
52248;SDS011;38541;48.130;8.378;2023-03-14T06:05:15;0.80;;;0.65;;
52248;SDS011;38541;48.130;8.378;2023-03-14T06:07:43;0.85;;;0.52;;
52248;SDS011;38541;48.130;8.378;2023-03-14T06:10:10;1.40;;;0.85;;
52248;SDS011;38541;48.130;8.378;2023-03-14T06:12:37;0.88;;;0.57;;
52248;SDS011;38541;48.130;8.378;2023-03-14T06:15:04;0.60;;;0.60;;
52248;SDS011;38541;48.130;8.378;2023-03-14T06:17:32;0.40;;;0.40;;
52248;SDS011;38541;48.130;8.378;2023-03-14T06:20:06;0.40;;;0.40;;
52248;SDS011;38541;48.130;8.378;2023-03-14T06:22:33;0.50;;;0.50;;
52248;SDS011;38541;48.130;8.378;2023-03-14T06:25:01;0.40;;;0.40;;
52248;SDS011;38541;48.130;8.378;2023-03-14T06:27:27;0.38;;;0.38;;
52248;SDS011;38541;48.130;8.378;2023-03-14T06:29:55;0.57;;;0.57;;
52248;SDS011;38541;48.130;8.378;2023-03-14T06:32:23;0.52;;;0.52;;
52248;SDS011;38541;48.130;8.378;2023-03-14T06:34:52;0.50;;;0.50;;
52248;SDS011;38541;48.130;8.378;2023-03-14T06:37:19;1.20;;;0.70;;
52248;SDS011;38541;48.130;8.378;2023-03-14T06:39:47;1.63;;;0.80;;
52248;SDS011;38541;48.130;8.378;2023-03-14T06:42:25;1.00;;;0.65;;
52248;SDS011;38541;48.130;8.378;2023-03-14T06:44:53;2.00;;;0.80;;
52248;SDS011;38541;48.130;8.378;2023-03-14T06:47:19;1.10;;;0.80;;
52248;SDS011;38541;48.130;8.378;2023-03-14T06:49:46;0.70;;;0.70;;
52248;SDS011;38541;48.130;8.378;2023-03-14T06:52:15;0.57;;;0.57;;
52248;SDS011;38541;48.130;8.378;2023-03-14T06:54:42;0.50;;;0.50;;
52248;SDS011;38541;48.130;8.378;2023-03-14T06:57:08;0.75;;;0.70;;
52248;SDS011;38541;48.130;8.378;2023-03-14T06:59:35;1.05;;;0.47;;
52248;SDS011;38541;48.130;8.378;2023-03-14T07:02:02;1.00;;;0.90;;
52248;SDS011;38541;48.130;8.378;2023-03-14T07:04:28;1.13;;;0.90;;
52248;SDS011;38541;48.130;8.378;2023-03-14T07:06:55;0.60;;;0.60;;
52248;SDS011;38541;48.130;8.378;2023-03-14T07:09:22;0.50;;;0.50;;
52248;SDS011;38541;48.130;8.378;2023-03-14T07:11:55;0.70;;;0.70;;
52248;SDS011;38541;48.130;8.378;2023-03-14T07:14:22;0.95;;;0.70;;
52248;SDS011;38541;48.130;8.378;2023-03-14T07:16:49;0.50;;;0.50;;
52248;SDS011;38541;48.130;8.378;2023-03-14T07:19:15;0.50;;;0.50;;
52248;SDS011;38541;48.130;8.378;2023-03-14T07:21:42;0.60;;;0.60;;
52248;SDS011;38541;48.130;8.378;2023-03-14T07:24:11;0.40;;;0.40;;
52248;SDS011;38541;48.130;8.378;2023-03-14T07:26:39;0.68;;;0.68;;
52248;SDS011;38541;48.130;8.378;2023-03-14T07:29:06;1.27;;;0.60;;
52248;SDS011;38541;48.130;8.378;2023-03-14T07:31:33;0.80;;;0.70;;
52248;SDS011;38541;48.130;8.378;2023-03-14T07:34:01;0.50;;;0.50;;
52248;SDS011;38541;48.130;8.378;2023-03-14T07:36:31;1.95;;;0.80;;
52248;SDS011;38541;48.130;8.378;2023-03-14T07:38:58;0.57;;;0.57;;
52248;SDS011;38541;48.130;8.378;2023-03-14T07:41:47;1.02;;;0.57;;
52248;SDS011;38541;48.130;8.378;2023-03-14T07:44:32;1.30;;;0.77;;
52248;SDS011;38541;48.130;8.378;2023-03-14T07:46:59;0.60;;;0.60;;
52248;SDS011;38541;48.130;8.378;2023-03-14T07:49:26;1.02;;;0.50;;
52248;SDS011;38541;48.130;8.378;2023-03-14T07:51:52;1.80;;;1.27;;
52248;SDS011;38541;48.130;8.378;2023-03-14T07:54:19;1.15;;;0.90;;
52248;SDS011;38541;48.130;8.378;2023-03-14T07:56:46;0.45;;;0.45;;
52248;SDS011;38541;48.130;8.378;2023-03-14T07:59:12;1.20;;;0.50;;
52248;SDS011;38541;48.130;8.378;2023-03-14T08:01:40;0.65;;;0.60;;
52248;SDS011;38541;48.130;8.378;2023-03-14T08:04:07;0.60;;;0.60;;
52248;SDS011;38541;48.130;8.378;2023-03-14T08:06:34;3.03;;;0.55;;
52248;SDS011;38541;48.130;8.378;2023-03-14T08:09:02;0.40;;;0.40;;
52248;SDS011;38541;48.130;8.378;2023-03-14T08:11:29;0.73;;;0.73;;
52248;SDS011;38541;48.130;8.378;2023-03-14T08:13:55;0.45;;;0.45;;
52248;SDS011;38541;48.130;8.378;2023-03-14T08:16:22;0.50;;;0.50;;
52248;SDS011;38541;48.130;8.378;2023-03-14T08:18:49;0.88;;;0.40;;
52248;SDS011;38541;48.130;8.378;2023-03-14T08:21:15;1.60;;;0.50;;
52248;SDS011;38541;48.130;8.378;2023-03-14T08:23:41;0.73;;;0.73;;
52248;SDS011;38541;48.130;8.378;2023-03-14T08:26:08;0.40;;;0.40;;
52248;SDS011;38541;48.130;8.378;2023-03-14T08:28:35;0.45;;;0.40;;
52248;SDS011;38541;48.130;8.378;2023-03-14T08:31:01;1.23;;;0.45;;
52248;SDS011;38541;48.130;8.378;2023-03-14T08:33:28;0.43;;;0.43;;
52248;SDS011;38541;48.130;8.378;2023-03-14T08:35:56;0.65;;;0.65;;
52248;SDS011;38541;48.130;8.378;2023-03-14T08:38:25;1.92;;;1.00;;
52248;SDS011;38541;48.130;8.378;2023-03-14T08:40:55;0.60;;;0.60;;
52248;SDS011;38541;48.130;8.378;2023-03-14T08:43:26;1.35;;;0.70;;
52248;SDS011;38541;48.130;8.378;2023-03-14T08:45:53;1.83;;;0.50;;
52248;SDS011;38541;48.130;8.378;2023-03-14T08:48:23;0.40;;;0.40;;
52248;SDS011;38541;48.130;8.378;2023-03-14T08:50:50;0.65;;;0.50;;
52248;SDS011;38541;48.130;8.378;2023-03-14T08:53:16;0.30;;;0.30;;
52248;SDS011;38541;48.130;8.378;2023-03-14T08:55:43;0.40;;;0.40;;
52248;SDS011;38541;48.130;8.378;2023-03-14T08:58:09;0.30;;;0.30;;
52248;SDS011;38541;48.130;8.378;2023-03-14T09:00:36;0.82;;;0.50;;
52248;SDS011;38541;48.130;8.378;2023-03-14T09:03:02;0.40;;;0.40;;
52248;SDS011;38541;48.130;8.378;2023-03-14T09:05:32;0.50;;;0.50;;
52248;SDS011;38541;48.130;8.378;2023-03-14T09:07:59;0.40;;;0.40;;
52248;SDS011;38541;48.130;8.378;2023-03-14T09:10:26;0.40;;;0.40;;
52248;SDS011;38541;48.130;8.378;2023-03-14T09:12:53;0.30;;;0.30;;
52248;SDS011;38541;48.130;8.378;2023-03-14T09:15:19;0.60;;;0.60;;
52248;SDS011;38541;48.130;8.378;2023-03-14T09:17:46;1.52;;;0.80;;
52248;SDS011;38541;48.130;8.378;2023-03-14T09:20:12;0.40;;;0.40;;
52248;SDS011;38541;48.130;8.378;2023-03-14T09:22:40;0.40;;;0.40;;
52248;SDS011;38541;48.130;8.378;2023-03-14T09:25:07;0.38;;;0.38;;
52248;SDS011;38541;48.130;8.378;2023-03-14T09:27:33;0.47;;;0.40;;
52248;SDS011;38541;48.130;8.378;2023-03-14T09:30:00;1.17;;;0.30;;
52248;SDS011;38541;48.130;8.378;2023-03-14T09:32:27;0.30;;;0.30;;
52248;SDS011;38541;48.130;8.378;2023-03-14T09:34:53;0.77;;;0.52;;
52248;SDS011;38541;48.130;8.378;2023-03-14T09:37:20;0.50;;;0.50;;
52248;SDS011;38541;48.130;8.378;2023-03-14T09:39:47;0.45;;;0.45;;
52248;SDS011;38541;48.130;8.378;2023-03-14T09:42:14;0.40;;;0.40;;
52248;SDS011;38541;48.130;8.378;2023-03-14T09:44:54;1.13;;;0.40;;
52248;SDS011;38541;48.130;8.378;2023-03-14T09:47:32;0.40;;;0.40;;
52248;SDS011;38541;48.130;8.378;2023-03-14T09:50:01;0.50;;;0.40;;
52248;SDS011;38541;48.130;8.378;2023-03-14T09:52:29;0.40;;;0.40;;
52248;SDS011;38541;48.130;8.378;2023-03-14T09:54:59;0.30;;;0.30;;
52248;SDS011;38541;48.130;8.378;2023-03-14T09:57:42;0.43;;;0.43;;
52248;SDS011;38541;48.130;8.378;2023-03-14T10:00:18;0.45;;;0.45;;
52248;SDS011;38541;48.130;8.378;2023-03-14T10:02:51;0.38;;;0.38;;
52248;SDS011;38541;48.130;8.378;2023-03-14T10:05:22;0.43;;;0.40;;
52248;SDS011;38541;48.130;8.378;2023-03-14T10:07:50;0.40;;;0.40;;
52248;SDS011;38541;48.130;8.378;2023-03-14T10:10:18;0.40;;;0.40;;
52248;SDS011;38541;48.130;8.378;2023-03-14T10:12:47;0.40;;;0.40;;
52248;SDS011;38541;48.130;8.378;2023-03-14T10:15:26;0.40;;;0.40;;
52248;SDS011;38541;48.130;8.378;2023-03-14T10:17:58;0.50;;;0.50;;
52248;SDS011;38541;48.130;8.378;2023-03-14T10:20:36;0.50;;;0.50;;
52248;SDS011;38541;48.130;8.378;2023-03-14T10:25:38;0.38;;;0.38;;
52248;SDS011;38541;48.130;8.378;2023-03-14T10:28:26;0.40;;;0.40;;
52248;SDS011;38541;48.130;8.378;2023-03-14T10:30:58;0.30;;;0.30;;
52248;SDS011;38541;48.130;8.378;2023-03-14T10:35:54;0.38;;;0.38;;
52248;SDS011;38541;48.130;8.378;2023-03-14T10:38:24;0.40;;;0.35;;
52248;SDS011;38541;48.130;8.378;2023-03-14T10:40:53;0.30;;;0.30;;
52248;SDS011;38541;48.130;8.378;2023-03-14T10:43:31;0.30;;;0.30;;
52248;SDS011;38541;48.130;8.378;2023-03-14T10:46:07;0.40;;;0.40;;
52248;SDS011;38541;48.130;8.378;2023-03-14T10:48:56;0.30;;;0.30;;
52248;SDS011;38541;48.130;8.378;2023-03-14T10:51:26;1.13;;;0.50;;
52248;SDS011;38541;48.130;8.378;2023-03-14T10:56:36;0.40;;;0.40;;
52248;SDS011;38541;48.130;8.378;2023-03-14T10:59:06;0.40;;;0.40;;
52248;SDS011;38541;48.130;8.378;2023-03-14T11:01:58;0.40;;;0.30;;
52248;SDS011;38541;48.130;8.378;2023-03-14T11:15:41;0.50;;;0.50;;
52248;SDS011;38541;48.130;8.378;2023-03-14T11:21:08;0.57;;;0.40;;
52248;SDS011;38541;48.130;8.378;2023-03-14T11:26:49;0.30;;;0.30;;
52248;SDS011;38541;48.130;8.378;2023-03-14T11:29:38;0.38;;;0.30;;
52248;SDS011;38541;48.130;8.378;2023-03-14T11:32:29;0.30;;;0.30;;
52248;SDS011;38541;48.130;8.378;2023-03-14T11:35:08;0.40;;;0.40;;
52248;SDS011;38541;48.130;8.378;2023-03-14T11:37:48;0.40;;;0.40;;
52248;SDS011;38541;48.130;8.378;2023-03-14T11:40:20;0.30;;;0.30;;
52248;SDS011;38541;48.130;8.378;2023-03-14T11:42:56;0.57;;;0.57;;
52248;SDS011;38541;48.130;8.378;2023-03-14T11:45:29;0.30;;;0.30;;
52248;SDS011;38541;48.130;8.378;2023-03-14T11:48:11;0.50;;;0.40;;
52248;SDS011;38541;48.130;8.378;2023-03-14T11:50:45;0.40;;;0.40;;
52248;SDS011;38541;48.130;8.378;2023-03-14T11:53:17;0.30;;;0.30;;
52248;SDS011;38541;48.130;8.378;2023-03-14T11:55:48;1.10;;;0.77;;
52248;SDS011;38541;48.130;8.378;2023-03-14T11:58:20;1.00;;;0.70;;
52248;SDS011;38541;48.130;8.378;2023-03-14T12:00:53;0.80;;;0.60;;
52248;SDS011;38541;48.130;8.378;2023-03-14T12:06:10;3.65;;;1.10;;
52248;SDS011;38541;48.130;8.378;2023-03-14T12:08:55;0.60;;;0.57;;
52248;SDS011;38541;48.130;8.378;2023-03-14T12:11:47;1.13;;;1.02;;
52248;SDS011;38541;48.130;8.378;2023-03-14T12:16:53;0.88;;;0.60;;
52248;SDS011;38541;48.130;8.378;2023-03-14T12:22:00;0.73;;;0.73;;
52248;SDS011;38541;48.130;8.378;2023-03-14T12:24:35;0.70;;;0.70;;
52248;SDS011;38541;48.130;8.378;2023-03-14T12:27:04;1.38;;;1.27;;
52248;SDS011;38541;48.130;8.378;2023-03-14T12:29:51;1.67;;;1.10;;
52248;SDS011;38541;48.130;8.378;2023-03-14T12:32:29;0.98;;;0.93;;
52248;SDS011;38541;48.130;8.378;2023-03-14T12:34:58;1.13;;;1.10;;
52248;SDS011;38541;48.130;8.378;2023-03-14T12:37:53;2.50;;;1.20;;
52248;SDS011;38541;48.130;8.378;2023-03-14T12:40:26;1.17;;;1.10;;
52248;SDS011;38541;48.130;8.378;2023-03-14T12:42:58;2.17;;;1.10;;
52248;SDS011;38541;48.130;8.378;2023-03-14T12:45:35;1.20;;;1.10;;
52248;SDS011;38541;48.130;8.378;2023-03-14T12:48:16;1.08;;;0.95;;
52248;SDS011;38541;48.130;8.378;2023-03-14T12:51:04;1.63;;;1.23;;
52248;SDS011;38541;48.130;8.378;2023-03-14T12:53:49;1.15;;;0.98;;
52248;SDS011;38541;48.130;8.378;2023-03-14T13:07:10;0.80;;;0.80;;
52248;SDS011;38541;48.130;8.378;2023-03-14T13:10:05;3.97;;;2.17;;
52248;SDS011;38541;48.130;8.378;2023-03-14T13:12:41;2.22;;;1.27;;
52248;SDS011;38541;48.130;8.378;2023-03-14T13:15:41;4.20;;;1.45;;
52248;SDS011;38541;48.130;8.378;2023-03-14T13:20:44;1.65;;;1.15;;
52248;SDS011;38541;48.130;8.378;2023-03-14T13:23:31;1.75;;;1.65;;
52248;SDS011;38541;48.130;8.378;2023-03-14T13:26:00;3.80;;;1.35;;
52248;SDS011;38541;48.130;8.378;2023-03-14T13:28:27;2.70;;;1.63;;
52248;SDS011;38541;48.130;8.378;2023-03-14T13:31:03;0.80;;;0.80;;
52248;SDS011;38541;48.130;8.378;2023-03-14T13:33:32;1.30;;;1.20;;
52248;SDS011;38541;48.130;8.378;2023-03-14T13:36:01;2.38;;;0.90;;
52248;SDS011;38541;48.130;8.378;2023-03-14T13:38:31;1.10;;;0.80;;
52248;SDS011;38541;48.130;8.378;2023-03-14T13:40:59;1.38;;;1.10;;
52248;SDS011;38541;48.130;8.378;2023-03-14T13:43:30;1.52;;;0.90;;
52248;SDS011;38541;48.130;8.378;2023-03-14T13:48:33;1.50;;;1.10;;
52248;SDS011;38541;48.130;8.378;2023-03-14T13:51:05;4.95;;;1.50;;
52248;SDS011;38541;48.130;8.378;2023-03-14T13:53:49;3.30;;;1.52;;
52248;SDS011;38541;48.130;8.378;2023-03-14T13:56:18;0.93;;;0.90;;
52248;SDS011;38541;48.130;8.378;2023-03-14T13:58:46;2.05;;;0.90;;
52248;SDS011;38541;48.130;8.378;2023-03-14T14:01:14;1.67;;;1.08;;
52248;SDS011;38541;48.130;8.378;2023-03-14T14:03:44;1.73;;;1.40;;
52248;SDS011;38541;48.130;8.378;2023-03-14T14:08:59;2.42;;;1.13;;
52248;SDS011;38541;48.130;8.378;2023-03-14T14:11:42;1.35;;;1.25;;
52248;SDS011;38541;48.130;8.378;2023-03-14T14:14:34;1.85;;;1.25;;
52248;SDS011;38541;48.130;8.378;2023-03-14T14:17:08;2.10;;;1.20;;
52248;SDS011;38541;48.130;8.378;2023-03-14T14:19:37;1.20;;;1.10;;
52248;SDS011;38541;48.130;8.378;2023-03-14T14:22:08;3.42;;;1.75;;
52248;SDS011;38541;48.130;8.378;2023-03-14T14:24:36;1.35;;;1.25;;
52248;SDS011;38541;48.130;8.378;2023-03-14T14:27:38;5.35;;;1.42;;
52248;SDS011;38541;48.130;8.378;2023-03-14T14:30:04;1.85;;;1.40;;
52248;SDS011;38541;48.130;8.378;2023-03-14T14:32:37;1.80;;;1.17;;
52248;SDS011;38541;48.130;8.378;2023-03-14T14:35:06;2.35;;;1.15;;
52248;SDS011;38541;48.130;8.378;2023-03-14T14:37:43;4.90;;;1.90;;
52248;SDS011;38541;48.130;8.378;2023-03-14T14:40:16;3.35;;;2.55;;
52248;SDS011;38541;48.130;8.378;2023-03-14T14:42:46;4.82;;;2.38;;
52248;SDS011;38541;48.130;8.378;2023-03-14T14:45:15;2.25;;;1.23;;
52248;SDS011;38541;48.130;8.378;2023-03-14T14:48:04;1.38;;;1.02;;
52248;SDS011;38541;48.130;8.378;2023-03-14T14:50:34;1.27;;;1.10;;
52248;SDS011;38541;48.130;8.378;2023-03-14T14:55:58;6.43;;;1.88;;
52248;SDS011;38541;48.130;8.378;2023-03-14T14:58:36;2.92;;;1.23;;
52248;SDS011;38541;48.130;8.378;2023-03-14T15:01:19;2.33;;;1.10;;
52248;SDS011;38541;48.130;8.378;2023-03-14T15:03:50;1.30;;;1.20;;
52248;SDS011;38541;48.130;8.378;2023-03-14T15:06:18;1.77;;;1.10;;
52248;SDS011;38541;48.130;8.378;2023-03-14T15:08:45;1.92;;;1.05;;
52248;SDS011;38541;48.130;8.378;2023-03-14T15:11:15;2.65;;;1.08;;
52248;SDS011;38541;48.130;8.378;2023-03-14T15:13:44;3.20;;;1.13;;
52248;SDS011;38541;48.130;8.378;2023-03-14T15:16:11;1.67;;;1.20;;
52248;SDS011;38541;48.130;8.378;2023-03-14T15:18:39;1.88;;;1.48;;
52248;SDS011;38541;48.130;8.378;2023-03-14T15:21:05;1.58;;;1.48;;
52248;SDS011;38541;48.130;8.378;2023-03-14T15:23:32;2.90;;;1.10;;
52248;SDS011;38541;48.130;8.378;2023-03-14T15:25:58;3.08;;;1.45;;
52248;SDS011;38541;48.130;8.378;2023-03-14T15:28:26;2.20;;;1.10;;
52248;SDS011;38541;48.130;8.378;2023-03-14T15:30:55;1.75;;;0.90;;
52248;SDS011;38541;48.130;8.378;2023-03-14T15:33:23;3.10;;;1.40;;
52248;SDS011;38541;48.130;8.378;2023-03-14T15:35:51;3.33;;;0.98;;
52248;SDS011;38541;48.130;8.378;2023-03-14T15:38:19;1.52;;;0.80;;
52248;SDS011;38541;48.130;8.378;2023-03-14T15:40:49;1.67;;;1.50;;
52248;SDS011;38541;48.130;8.378;2023-03-14T15:43:17;3.03;;;1.33;;
52248;SDS011;38541;48.130;8.378;2023-03-14T15:45:45;3.28;;;1.30;;
52248;SDS011;38541;48.130;8.378;2023-03-14T15:48:15;2.80;;;1.02;;
52248;SDS011;38541;48.130;8.378;2023-03-14T15:50:43;2.33;;;1.52;;
52248;SDS011;38541;48.130;8.378;2023-03-14T15:53:10;4.28;;;1.33;;
52248;SDS011;38541;48.130;8.378;2023-03-14T15:55:37;2.63;;;1.17;;
52248;SDS011;38541;48.130;8.378;2023-03-14T15:58:04;3.05;;;1.23;;
52248;SDS011;38541;48.130;8.378;2023-03-14T16:00:31;1.15;;;1.05;;
52248;SDS011;38541;48.130;8.378;2023-03-14T16:02:58;3.08;;;1.58;;
52248;SDS011;38541;48.130;8.378;2023-03-14T16:05:24;2.85;;;2.00;;
52248;SDS011;38541;48.130;8.378;2023-03-14T16:07:51;2.53;;;1.58;;
52248;SDS011;38541;48.130;8.378;2023-03-14T16:10:17;4.50;;;1.70;;
52248;SDS011;38541;48.130;8.378;2023-03-14T16:12:44;2.80;;;1.48;;
52248;SDS011;38541;48.130;8.378;2023-03-14T16:15:10;2.17;;;1.00;;
52248;SDS011;38541;48.130;8.378;2023-03-14T16:17:37;1.85;;;1.35;;
52248;SDS011;38541;48.130;8.378;2023-03-14T16:20:06;1.13;;;0.82;;